Waterford, Connecticut
Current Conditions -  °F | °C
As of 3:56 PM on Saturday 22 Nov 2014 (Local Time) from KGON Reporting Station
Haze Haze  
Wind Chill: 31°   Ceiling: Unl
Heat Index: 40°   Visibility: 6mi
Dew Point: 25°   Wind: 17mph
Humidity: 55%   Direction: 240°WSW
Pressure: 30.24"   Gusts: 26mph
Location:  41.33°N, 72.12°W
Report Text: KGON 222056Z 24015G23KT 6SM HZ CLR 04/M04 A3024 RMK AO2 PK WND 23027/2038 SLP240 T00441039 56024
Loading
Personal Weather Stations






























Interactive Weather Map New forecast layout! Learn more

10-Day Weather Forecast

Advertisements
Track Severe Weather on mobile